Observations for Trim Patrick St
| Time | AQI | Temp °C | Hum % | Pres Pa | CO μg/m³ | H₂S μg/m³ | NO μg/m³ | NO₂ μg/m³ | O₃ μg/m³ | SO₂ μg/m³ | PM1 μg/m³ | PM2.5 μg/m³ | PM10 μg/m³ |
|---|---|---|---|---|---|---|---|---|---|---|---|---|---|
| Thursday 6 August 2026 | |||||||||||||
| 09:27 | 1 | 21.3 | 58 | 74,157 | 0.07 | 0 | 3.6 | 6.25 | 41.51 | 4.77 | 3.71 | 8.14 | 8.96 |
| 09:26 | 1 | 21.3 | 59 | 74,172 | 0.1 | 0 | 3.72 | 2.46 | 16.43 | 4.79 | 2.86 | 6.6 | 7.26 |
| 09:25 | 1 | 21.2 | 57 | 74,190 | 0.09 | 0 | 3.38 | 4.1 | 35.45 | 4.57 | 2.86 | 7.44 | 8.19 |
| 09:24 | 1 | 21.2 | 58 | 74,206 | 0.06 | 0 | 3.54 | 6.32 | 34.66 | 4.82 | 2.86 | 6.67 | 7.34 |
| 09:23 | 1 | 21.2 | 56 | 74,212 | 0.05 | 0 | 3.65 | 5.45 | 30.43 | 4.21 | 2.86 | 6.81 | 7.49 |
| 09:22 | 1 | 21.2 | 57 | 74,220 | 0.09 | 0 | 3.49 | 5.42 | 8.64 | 3.15 | 2.86 | 6.73 | 7.41 |
| 09:21 | 1 | 21.1 | 56 | 74,241 | 0.12 | 0 | 3.5 | 1.47 | 11.63 | 4.68 | 2 | 6.77 | 7.45 |
| 09:20 | 1 | 21.1 | 59 | 74,275 | 0.14 | 0 | 3.94 | 3.96 | 29.4 | 3.99 | 2 | 5.86 | 6.44 |
| 09:19 | 1 | 21 | 58 | 74,306 | 0.13 | 0 | 3.78 | 4.05 | 24.08 | 4.19 | 2 | 6.63 | 7.29 |
| 09:18 | 1 | 21 | 60 | 74,347 | 0.14 | 0 | 3.54 | 4.83 | 45.13 | 3.76 | 2 | 5.78 | 6.36 |
| 09:17 | 1 | 21 | 57 | 74,408 | 0.15 | 0 | 3.93 | 4.4 | 19.79 | 4 | 2.86 | 6.69 | 7.36 |
| 09:16 | 1 | 21 | 57 | 74,475 | 0.16 | 0 | 3.68 | 1.86 | 25.01 | 4.31 | 2 | 6.71 | 7.39 |
| 09:15 | 1 | 20.9 | 59 | 74,562 | 0.16 | 0 | 3.97 | 4.42 | 29.06 | 3.36 | 2 | 5.85 | 6.43 |
| 09:14 | 1 | 21 | 57 | 74,669 | 0.18 | 0 | 3.68 | 3.09 | 18 | 3.37 | 2 | 5.98 | 6.58 |
| 09:13 | 1 | 20.9 | 58 | 74,815 | 0.2 | 0 | 3.71 | 2.49 | 10.8 | 3.1 | 2.86 | 6.69 | 7.36 |
| 09:12 | 1 | 20.9 | 60 | 74,988 | 0.22 | 0 | 3.67 | 4.65 | 23.99 | 3.28 | 2 | 5.81 | 6.4 |
| 09:11 | 1 | 20.9 | 59 | 75,180 | 0.23 | 0 | 3.77 | 3.84 | 28.03 | 4.47 | 2 | 7.31 | 8.04 |
| 09:10 | 1 | 20.8 | 59 | 75,408 | 0.23 | 0 | 3.63 | 4.26 | 21.7 | 2.88 | 2 | 6.62 | 7.28 |
| 09:09 | 1 | 20.8 | 60 | 75,668 | 0.23 | 0 | 3.96 | 2.68 | 18.38 | 3.78 | 2 | 5.8 | 6.38 |
| 09:08 | 1 | 20.7 | 59 | 75,969 | 0.23 | 0 | 3.89 | 5.56 | 28.71 | 3.51 | 2 | 6.59 | 7.25 |